Time;durP1;ratioP1;P1;durP2;ratioP2;P2;SDS_P1;SDS_P2;PMS_P1;PMS_P2;Temp;Humidity;BMP_temperature;BMP_pressure;BME280_temperature;BME280_humidity;BME280_pressure;Samples;Min_cycle;Max_cycle;Signal;HPM_P1;HPM_P2
2021/01/11 00:01:41;;;;;;;26.00;11.52;;;2.10;99.90;;;;;;4975005;28;20057;-77
2021/01/11 00:04:07;;;;;;;24.33;11.60;;;2.10;99.90;;;;;;4980344;28;20023;-78
2021/01/11 00:06:42;;;;;;;23.02;11.88;;;2.10;99.90;;;;;;4980341;28;20290;-78
2021/01/11 00:09:08;;;;;;;25.70;11.90;;;2.10;99.90;;;;;;4976901;28;20359;-78
2021/01/11 00:11:35;;;;;;;28.98;11.63;;;2.10;99.90;;;;;;4976318;28;20030;-78
2021/01/11 00:14:04;;;;;;;27.58;11.45;;;2.20;99.90;;;;;;4980213;28;20030;-77
2021/01/11 00:16:30;;;;;;;23.08;11.45;;;2.10;99.90;;;;;;4970971;28;20436;-78
2021/01/11 00:18:56;;;;;;;28.75;12.82;;;2.10;99.90;;;;;;4982975;28;20026;-77
2021/01/11 00:21:22;;;;;;;24.10;11.10;;;2.10;99.90;;;;;;4976737;28;20018;-78
2021/01/11 00:23:47;;;;;;;27.02;11.88;;;2.10;99.90;;;;;;4977416;28;20038;-78
2021/01/11 00:26:13;;;;;;;26.50;11.63;;;2.10;99.90;;;;;;4979382;28;20045;-77
2021/01/11 00:28:39;;;;;;;26.55;11.23;;;2.10;99.90;;;;;;4975346;28;20033;-77
2021/01/11 00:31:05;;;;;;;24.95;11.07;;;2.10;99.90;;;;;;4981873;28;20053;-78
2021/01/11 00:33:30;;;;;;;26.05;11.60;;;2.10;99.90;;;;;;4978377;28;20397;-78
2021/01/11 00:35:56;;;;;;;20.52;10.85;;;2.10;99.90;;;;;;4979575;28;20405;-77
2021/01/11 00:38:21;;;;;;;19.65;9.77;;;2.10;99.90;;;;;;4977468;28;20022;-78
2021/01/11 00:40:47;;;;;;;23.58;11.07;;;2.00;99.90;;;;;;4984008;28;20125;-78
2021/01/11 00:43:13;;;;;;;23.52;11.25;;;2.10;99.90;;;;;;4979121;28;20033;-77
2021/01/11 00:45:39;;;;;;;20.63;9.35;;;2.20;99.90;;;;;;4980034;28;20058;-77
2021/01/11 00:48:05;;;;;;;20.75;9.80;;;2.10;99.90;;;;;;4978304;28;20389;-77
2021/01/11 00:50:30;;;;;;;20.08;10.10;;;2.20;99.90;;;;;;4979077;28;20035;-77
2021/01/11 00:52:56;;;;;;;19.38;9.18;;;2.30;99.90;;;;;;4973867;28;20018;-78
2021/01/11 00:55:21;;;;;;;15.77;8.13;;;2.20;99.90;;;;;;4978377;28;20026;-78
2021/01/11 00:57:47;;;;;;;17.33;8.88;;;2.30;99.90;;;;;;4981036;28;20049;-77
2021/01/11 01:00:13;;;;;;;19.08;9.20;;;2.30;99.90;;;;;;4982507;28;20018;-78
2021/01/11 01:02:39;;;;;;;20.20;9.80;;;2.30;99.90;;;;;;4980973;28;20161;-78
2021/01/11 01:05:11;;;;;;;18.55;9.38;;;2.30;99.90;;;;;;4981386;28;20105;-77
2021/01/11 01:07:43;;;;;;;19.17;9.05;;;2.40;99.90;;;;;;4975954;28;20042;-78
2021/01/11 01:10:11;;;;;;;21.15;9.93;;;2.30;99.90;;;;;;4980894;28;20026;-77
2021/01/11 01:12:37;;;;;;;18.05;9.90;;;2.30;99.90;;;;;;4985950;28;20496;-77
2021/01/11 01:15:04;;;;;;;18.90;9.13;;;2.30;99.90;;;;;;4982483;28;20030;-78
2021/01/11 01:17:30;;;;;;;20.00;9.18;;;2.40;99.90;;;;;;4985115;28;20027;-78
2021/01/11 01:19:55;;;;;;;17.20;8.85;;;2.40;99.90;;;;;;4981137;28;20076;-78
2021/01/11 01:22:20;;;;;;;16.15;8.23;;;2.40;99.90;;;;;;4984247;28;20050;-78
2021/01/11 01:24:46;;;;;;;16.17;8.63;;;2.40;99.90;;;;;;4982775;28;20489;-78
2021/01/11 01:27:11;;;;;;;17.40;8.88;;;2.40;99.90;;;;;;4980039;28;20019;-78
2021/01/11 01:29:37;;;;;;;16.38;8.38;;;2.40;99.90;;;;;;4981252;28;20469;-78
2021/01/11 01:32:02;;;;;;;18.40;9.15;;;2.50;99.90;;;;;;4986489;28;20030;-78
2021/01/11 01:34:28;;;;;;;20.02;9.18;;;2.50;99.90;;;;;;4983601;28;20118;-78
2021/01/11 01:36:55;;;;;;;19.40;8.63;;;2.50;99.90;;;;;;4980302;28;20389;-78
2021/01/11 01:39:21;;;;;;;18.95;9.02;;;2.40;99.90;;;;;;4972363;28;20026;-78
2021/01/11 01:41:46;;;;;;;19.05;8.65;;;2.40;99.90;;;;;;4982325;28;20085;-77
2021/01/11 01:44:12;;;;;;;17.17;8.85;;;2.50;99.90;;;;;;4976768;28;20037;-78
2021/01/11 01:46:37;;;;;;;18.63;8.77;;;2.50;99.90;;;;;;4979664;28;20061;-78
2021/01/11 01:49:05;;;;;;;18.25;8.50;;;2.60;99.90;;;;;;4976761;28;20026;-78
2021/01/11 01:51:30;;;;;;;16.08;8.23;;;2.60;99.90;;;;;;4976407;28;20026;-78
2021/01/11 01:53:56;;;;;;;19.52;9.30;;;2.60;99.90;;;;;;4981592;28;20042;-78
2021/01/11 01:56:23;;;;;;;16.15;7.93;;;2.60;99.90;;;;;;4981189;28;20023;-78
2021/01/11 01:58:49;;;;;;;17.88;8.30;;;2.60;99.90;;;;;;4979905;28;20074;-77
2021/01/11 02:01:15;;;;;;;16.40;8.07;;;2.60;99.90;;;;;;4977429;28;20026;-77
2021/01/11 02:03:40;;;;;;;16.63;8.07;;;2.60;99.90;;;;;;4977468;28;20038;-77
2021/01/11 02:06:06;;;;;;;18.02;8.02;;;2.60;99.90;;;;;;4979893;28;20077;-77
2021/01/11 02:08:52;;;;;;;17.50;8.45;;;2.60;99.90;;;;;;4978593;28;20389;-77
2021/01/11 02:11:42;;;;;;;13.50;7.53;;;2.60;99.90;;;;;;4976741;28;20044;-78
2021/01/11 02:14:22;;;;;;;16.02;7.15;;;2.60;99.90;;;;;;4981140;28;20034;-78
2021/01/11 02:17:14;;;;;;;14.57;7.53;;;2.60;99.90;;;;;;4980019;28;20034;-77
2021/01/11 02:20:03;;;;;;;;;;;2.60;99.90;;;;;;4976322;28;20061;-77
2021/01/11 02:22:51;;;;;;;14.05;7.32;;;2.50;99.90;;;;;;4973128;28;19914;-77
2021/01/11 02:25:37;;;;;;;15.93;8.27;;;2.60;99.90;;;;;;4981666;28;20224;-77
2021/01/11 02:28:16;;;;;;;14.50;7.53;;;2.70;99.90;;;;;;4980094;28;20097;-77
2021/01/11 02:30:45;;;;;;;15.75;8.07;;;2.70;99.90;;;;;;4982323;28;20026;-77
2021/01/11 02:33:16;;;;;;;14.45;7.60;;;2.70;99.90;;;;;;4974905;28;20054;-78
2021/01/11 02:35:47;;;;;;;15.10;7.15;;;2.70;99.90;;;;;;4975507;28;20578;-78
2021/01/11 02:38:18;;;;;;;16.35;7.72;;;2.70;99.90;;;;;;4979352;28;20031;-78
2021/01/11 02:40:44;;;;;;;17.15;7.97;;;2.60;99.90;;;;;;4981951;28;20054;-78
2021/01/11 02:43:09;;;;;;;15.55;7.85;;;2.70;99.90;;;;;;4979267;28;20038;-78
2021/01/11 02:45:35;;;;;;;15.85;7.82;;;2.70;99.90;;;;;;4974614;28;20477;-77
2021/01/11 02:48:14;;;;;;;14.75;7.53;;;2.60;99.90;;;;;;4981380;28;20039;-78
2021/01/11 02:51:03;;;;;;;16.02;7.35;;;2.60;99.90;;;;;;4980721;28;20640;-78
2021/01/11 02:53:45;;;;;;;15.55;7.60;;;2.70;99.90;;;;;;4981660;28;20034;-78
2021/01/11 02:56:19;;;;;;;15.25;7.32;;;2.70;99.90;;;;;;4973540;28;20034;-79
2021/01/11 02:59:06;;;;;;;16.88;7.60;;;2.70;99.90;;;;;;4978077;28;20049;-78
2021/01/11 03:01:42;;;;;;;14.95;7.65;;;2.70;99.90;;;;;;4979619;28;20031;-78
2021/01/11 03:04:10;;;;;;;13.63;6.82;;;2.70;99.90;;;;;;4975896;28;20034;-78
2021/01/11 03:06:36;;;;;;;14.93;7.15;;;2.60;99.90;;;;;;4975956;28;20049;-78
2021/01/11 03:09:10;;;;;;;16.73;7.53;;;2.60;99.90;;;;;;4975646;28;20039;-78
2021/01/11 03:11:36;;;;;;;15.38;7.05;;;2.50;99.90;;;;;;4978205;28;20027;-77
2021/01/11 03:14:03;;;;;;;13.73;7.10;;;2.50;99.90;;;;;;4982578;28;20485;-78
2021/01/11 03:16:29;;;;;;;18.20;7.65;;;2.50;99.90;;;;;;4979325;28;20038;-77
2021/01/11 03:18:54;;;;;;;15.20;7.38;;;2.50;99.90;;;;;;4975283;28;20537;-78
2021/01/11 03:21:20;;;;;;;17.98;7.63;;;2.50;99.90;;;;;;4980436;28;20033;-78
2021/01/11 03:23:45;;;;;;;13.93;7.60;;;2.40;99.90;;;;;;4976741;28;20022;-78
2021/01/11 03:26:10;;;;;;;15.23;7.82;;;2.50;99.90;;;;;;4978566;28;20118;-78
2021/01/11 03:28:36;;;;;;;15.20;7.15;;;2.50;99.90;;;;;;4979183;28;20035;-78
2021/01/11 03:31:01;;;;;;;13.57;6.80;;;2.50;99.90;;;;;;4980363;28;20054;-77
2021/01/11 03:33:27;;;;;;;18.83;7.57;;;2.40;99.90;;;;;;4976472;28;20178;-77
2021/01/11 03:35:52;;;;;;;16.88;7.95;;;2.40;99.90;;;;;;4977096;28;20501;-77
2021/01/11 03:38:18;;;;;;;15.85;8.02;;;2.40;99.90;;;;;;4975125;28;20041;-77
2021/01/11 03:40:43;;;;;;;16.13;7.80;;;2.40;99.90;;;;;;4978582;28;20034;-78
2021/01/11 03:43:08;;;;;;;15.55;7.93;;;2.40;99.90;;;;;;4984426;28;20132;-77
2021/01/11 03:45:34;;;;;;;15.63;8.20;;;2.40;99.90;;;;;;4984461;28;20066;-76
2021/01/11 03:47:59;;;;;;;13.32;7.43;;;2.40;99.90;;;;;;4980925;28;20531;-78
2021/01/11 03:50:25;;;;;;;16.10;7.22;;;2.40;99.90;;;;;;4981304;28;20073;-77
2021/01/11 03:52:50;;;;;;;16.58;7.45;;;2.40;99.90;;;;;;4979659;28;20113;-77
2021/01/11 03:55:16;;;;;;;14.23;6.97;;;2.40;99.90;;;;;;4976889;28;20145;-77
2021/01/11 03:57:41;;;;;;;17.08;8.05;;;2.40;99.90;;;;;;4978066;28;20038;-77
2021/01/11 04:00:07;;;;;;;15.52;7.45;;;2.30;99.90;;;;;;4981346;28;20030;-77
2021/01/11 04:02:33;;;;;;;15.10;7.85;;;2.40;99.90;;;;;;4978771;28;20393;-77
2021/01/11 04:04:59;;;;;;;15.10;8.10;;;2.30;99.90;;;;;;4980640;28;20015;-77
2021/01/11 04:07:24;;;;;;;13.88;7.72;;;2.40;99.90;;;;;;4981019;28;20026;-77
2021/01/11 04:09:50;;;;;;;14.27;7.65;;;2.40;99.90;;;;;;4975703;28;20035;-77
2021/01/11 04:12:15;;;;;;;16.55;8.57;;;2.40;99.90;;;;;;4976071;28;20540;-77
2021/01/11 04:14:41;;;;;;;15.63;8.30;;;2.40;99.90;;;;;;4978655;28;20225;-77
2021/01/11 04:17:06;;;;;;;15.63;8.63;;;2.40;99.90;;;;;;4981713;28;20038;-77
2021/01/11 04:19:32;;;;;;;15.50;8.38;;;2.50;99.90;;;;;;4977768;28;20062;-77
2021/01/11 04:21:58;;;;;;;13.75;7.93;;;2.40;99.90;;;;;;4973621;28;20022;-77
2021/01/11 04:24:23;;;;;;;13.65;7.25;;;2.40;99.90;;;;;;4978443;28;20080;-78
2021/01/11 04:26:48;;;;;;;15.90;7.95;;;2.50;99.90;;;;;;4983075;28;20073;-78
2021/01/11 04:29:14;;;;;;;17.00;7.70;;;2.50;99.90;;;;;;4984346;28;20019;-78
2021/01/11 04:31:39;;;;;;;15.30;8.25;;;2.50;99.90;;;;;;4977558;28;20145;-77
2021/01/11 04:34:05;;;;;;;15.82;7.80;;;2.60;99.90;;;;;;4985895;28;20058;-77
2021/01/11 04:36:34;;;;;;;19.05;8.50;;;2.60;99.90;;;;;;4981422;28;20031;-77
2021/01/11 04:39:00;;;;;;;15.98;7.82;;;2.50;99.90;;;;;;4985915;28;20512;-78
2021/01/11 04:41:32;;;;;;;15.70;8.00;;;2.50;99.90;;;;;;4986231;28;20078;-77
2021/01/11 04:43:58;;;;;;;17.95;8.55;;;2.50;99.90;;;;;;4978152;28;20085;-77
2021/01/11 04:46:23;;;;;;;15.52;8.48;;;2.60;99.90;;;;;;4976892;28;20477;-78
2021/01/11 04:48:51;;;;;;;16.17;9.02;;;2.50;99.90;;;;;;4984124;28;20085;-78
2021/01/11 04:51:17;;;;;;;14.45;7.85;;;2.50;99.90;;;;;;4982451;28;20036;-78
2021/01/11 04:53:50;;;;;;;17.67;8.23;;;2.60;99.90;;;;;;4978969;28;20030;-78
2021/01/11 04:56:16;;;;;;;18.27;10.43;;;2.60;99.90;;;;;;4975230;28;20085;-78
2021/01/11 04:58:56;;;;;;;16.38;8.75;;;2.60;99.90;;;;;;4981429;28;20481;-77
2021/01/11 05:01:27;;;;;;;16.48;8.38;;;2.60;99.90;;;;;;4977929;28;20545;-77
2021/01/11 05:03:58;;;;;;;18.00;8.77;;;2.60;99.90;;;;;;4980881;28;20023;-77
2021/01/11 05:06:24;;;;;;;17.30;7.85;;;2.50;99.90;;;;;;4976069;28;20497;-78
2021/01/11 05:08:50;;;;;;;15.50;8.68;;;2.50;99.90;;;;;;4983492;28;20045;-78
2021/01/11 05:11:15;;;;;;;15.95;7.95;;;2.60;99.90;;;;;;4976821;28;20389;-78
2021/01/11 05:13:41;;;;;;;16.60;8.38;;;2.50;99.90;;;;;;4978614;28;20543;-77
2021/01/11 05:16:14;;;;;;;17.77;8.95;;;2.60;99.90;;;;;;4975368;28;20044;-78
2021/01/11 05:18:41;;;;;;;15.85;9.35;;;2.60;99.90;;;;;;4986009;28;20061;-78
2021/01/11 05:21:07;;;;;;;16.85;8.20;;;2.70;99.90;;;;;;4980124;28;20027;-78
2021/01/11 05:23:37;;;;;;;19.95;8.98;;;2.60;99.90;;;;;;4983327;28;20917;-78
2021/01/11 05:26:14;;;;;;;15.10;7.75;;;2.60;99.90;;;;;;4982409;28;20022;-78
2021/01/11 05:28:40;;;;;;;13.93;7.85;;;2.50;99.90;;;;;;4979518;28;20034;-78
2021/01/11 05:31:06;;;;;;;14.07;8.10;;;2.50;99.90;;;;;;4983725;28;20026;-78
2021/01/11 05:33:31;;;;;;;15.60;8.55;;;2.50;99.90;;;;;;4985027;28;20034;-77
2021/01/11 05:36:12;;;;;;;17.00;8.80;;;2.60;99.90;;;;;;4977790;28;20484;-78
2021/01/11 05:38:39;;;;;;;17.80;8.60;;;2.50;99.90;;;;;;4977503;28;20030;-78
2021/01/11 05:41:22;;;;;;;17.52;8.20;;;2.60;99.90;;;;;;4976776;28;20046;-78
2021/01/11 05:43:48;;;;;;;17.60;8.75;;;2.50;99.90;;;;;;4979687;28;20035;-78
2021/01/11 05:46:28;;;;;;;15.23;8.23;;;2.50;99.90;;;;;;4974485;28;20026;-78
2021/01/11 05:48:58;;;;;;;15.82;8.18;;;2.50;99.90;;;;;;4981546;28;20041;-77
2021/01/11 05:51:27;;;;;;;16.45;9.05;;;2.60;99.90;;;;;;4977642;28;20109;-78
2021/01/11 05:53:53;;;;;;;13.82;8.32;;;2.60;99.90;;;;;;4974210;28;20030;-77
2021/01/11 05:56:18;;;;;;;15.70;8.48;;;2.60;99.90;;;;;;4982188;28;20567;-77
2021/01/11 05:59:04;;;;;;;17.27;9.10;;;2.60;99.90;;;;;;4980267;28;20030;-77
2021/01/11 06:01:30;;;;;;;15.35;7.93;;;2.60;99.90;;;;;;4978044;28;20030;-77
2021/01/11 06:03:56;;;;;;;13.30;7.90;;;2.60;99.90;;;;;;4976544;28;20192;-78
2021/01/11 06:06:23;;;;;;;16.73;8.93;;;2.60;99.90;;;;;;4981469;28;20473;-78
2021/01/11 06:08:49;;;;;;;17.10;8.45;;;2.60;99.90;;;;;;4979580;28;20037;-78
2021/01/11 06:11:17;;;;;;;16.38;8.65;;;2.60;99.90;;;;;;4976374;28;20750;-79
2021/01/11 06:13:48;;;;;;;18.63;8.50;;;2.60;99.90;;;;;;4971660;28;20033;-77
2021/01/11 06:16:16;;;;;;;13.68;7.85;;;2.60;99.90;;;;;;4980399;28;20035;-78
2021/01/11 06:18:41;;;;;;;15.45;8.07;;;2.60;99.90;;;;;;4981014;28;20066;-77
2021/01/11 06:21:10;;;;;;;14.63;8.35;;;2.70;99.90;;;;;;4981520;28;20046;-77
2021/01/11 06:23:36;;;;;;;15.07;8.30;;;2.70;99.90;;;;;;4972859;28;20054;-77
2021/01/11 06:26:26;;;;;;;17.15;9.25;;;2.70;99.90;;;;;;4979542;28;20046;-77
2021/01/11 06:28:52;;;;;;;18.95;9.52;;;2.70;99.90;;;;;;4975113;28;20026;-77
2021/01/11 06:31:18;;;;;;;13.80;7.85;;;2.60;99.90;;;;;;4976258;28;20038;-76
2021/01/11 06:33:45;;;;;;;17.40;9.25;;;2.50;99.90;;;;;;4977188;28;20031;-76
2021/01/11 06:36:25;;;;;;;14.02;8.05;;;2.50;99.90;;;;;;4974323;28;20031;-76
2021/01/11 06:38:52;;;;;;;18.67;8.75;;;2.50;99.90;;;;;;4979153;28;20429;-76
2021/01/11 06:41:20;;;;;;;16.33;8.77;;;2.60;99.90;;;;;;4982259;28;20121;-76
2021/01/11 06:43:51;;;;;;;24.67;11.65;;;2.70;99.90;;;;;;4976629;28;20054;-76
2021/01/11 06:46:28;;;;;;;20.97;9.70;;;2.60;99.90;;;;;;4977478;28;20038;-74
2021/01/11 06:49:00;;;;;;;17.25;8.60;;;2.60;99.90;;;;;;4979445;28;20040;-75
2021/01/11 06:51:40;;;;;;;20.42;10.50;;;2.70;99.90;;;;;;4981314;28;20026;-82
2021/01/11 06:54:10;;;;;;;22.88;11.02;;;2.60;99.90;;;;;;4981180;28;20042;-78
2021/01/11 06:56:37;;;;;;;17.98;10.52;;;2.50;99.90;;;;;;4979888;28;20034;-79
2021/01/11 06:59:11;;;;;;;17.38;9.52;;;2.50;99.90;;;;;;4977731;28;20389;-83
2021/01/11 07:01:38;;;;;;;15.73;8.63;;;2.60;99.90;;;;;;4981992;28;20027;-84
2021/01/11 07:04:05;;;;;;;19.70;9.23;;;2.60;99.90;;;;;;4982635;28;20425;-79
2021/01/11 07:06:41;;;;;;;15.68;8.65;;;2.50;99.90;;;;;;4980311;28;20628;-78
2021/01/11 07:09:17;;;;;;;15.02;8.40;;;2.50;99.90;;;;;;4979202;28;20031;-77
2021/01/11 07:11:45;;;;;;;15.68;8.85;;;2.70;99.90;;;;;;4975371;28;20490;-78
2021/01/11 07:14:11;;;;;;;18.10;8.85;;;2.70;99.90;;;;;;4980591;28;20125;-78
2021/01/11 07:16:40;;;;;;;19.23;9.27;;;2.70;99.90;;;;;;4969416;28;20117;-76
2021/01/11 07:19:05;;;;;;;14.70;8.20;;;2.70;99.90;;;;;;4980089;28;20065;-76
2021/01/11 07:21:31;;;;;;;18.27;9.82;;;2.70;99.90;;;;;;4971180;28;20069;-77
2021/01/11 07:23:59;;;;;;;18.20;9.55;;;2.70;99.90;;;;;;4980350;28;20179;-77
2021/01/11 07:26:26;;;;;;;17.25;9.40;;;2.70;99.90;;;;;;4979299;28;20105;-77
2021/01/11 07:29:09;;;;;;;16.83;9.13;;;2.70;99.90;;;;;;4976423;28;20034;-78
2021/01/11 07:31:46;;;;;;;18.02;9.15;;;2.60;99.90;;;;;;4979341;28;20424;-73
2021/01/11 07:34:14;;;;;;;18.98;8.90;;;2.60;99.90;;;;;;4983946;28;20034;-74
2021/01/11 07:36:47;;;;;;;18.17;8.98;;;2.60;99.90;;;;;;4978038;28;20031;-76
2021/01/11 07:39:16;;;;;;;20.83;10.30;;;2.60;99.90;;;;;;4971609;28;20085;-76
2021/01/11 07:41:44;;;;;;;18.70;9.68;;;2.60;99.90;;;;;;4975887;28;20125;-74
2021/01/11 07:44:36;;;;;;;17.45;9.93;;;2.60;99.90;;;;;;4983542;28;20184;-76
2021/01/11 07:47:07;;;;;;;19.00;9.52;;;2.70;99.90;;;;;;4986903;28;20034;-76
2021/01/11 07:49:35;;;;;;;;;;;2.70;99.90;;;;;;4986885;28;20493;-75
2021/01/11 07:52:02;;;;;;;16.38;8.73;;;2.70;99.90;;;;;;4986200;28;19971;-76
2021/01/11 07:54:27;;;;;;;18.83;9.35;;;2.70;99.90;;;;;;4982108;28;20165;-75
2021/01/11 07:56:53;;;;;;;18.33;8.68;;;2.70;99.90;;;;;;4985846;28;20110;-76
2021/01/11 07:59:18;;;;;;;19.58;9.23;;;2.70;99.90;;;;;;4983974;28;20034;-76
2021/01/11 08:01:46;;;;;;;18.65;8.70;;;2.70;99.90;;;;;;4985187;28;20160;-76
2021/01/11 08:04:13;;;;;;;15.63;8.55;;;2.70;99.90;;;;;;4983678;28;20035;-76
2021/01/11 08:06:55;;;;;;;18.48;8.35;;;2.80;99.90;;;;;;4982347;28;20065;-76
2021/01/11 08:09:22;;;;;;;;;;;2.60;99.90;;;;;;4983911;28;20031;-78
2021/01/11 08:11:48;;;;;;;17.63;8.40;;;2.70;99.90;;;;;;4983919;28;19914;-77
2021/01/11 08:14:14;;;;;;;15.85;8.55;;;2.80;99.90;;;;;;4982454;28;20038;-76
2021/01/11 08:16:41;;;;;;;17.90;9.32;;;2.80;99.90;;;;;;4984364;28;20752;-75
2021/01/11 08:19:11;;;;;;;12.75;7.55;;;2.80;99.90;;;;;;4983410;28;20057;-75
2021/01/11 08:21:38;;;;;;;17.33;8.73;;;2.90;99.90;;;;;;4986390;28;20469;-76
2021/01/11 08:24:10;;;;;;;21.35;8.73;;;2.80;99.90;;;;;;4986462;28;20041;-76
2021/01/11 08:26:57;;;;;;;18.55;8.40;;;2.80;99.90;;;;;;4983951;28;20141;-76
2021/01/11 08:29:23;;;;;;;14.68;8.18;;;2.80;99.90;;;;;;4985138;28;20034;-76
2021/01/11 08:31:49;;;;;;;16.88;8.10;;;2.80;99.90;;;;;;4984351;28;20034;-75
2021/01/11 08:34:14;;;;;;;16.92;8.60;;;2.70;99.90;;;;;;4987106;28;20034;-75
2021/01/11 08:36:40;;;;;;;14.20;7.90;;;2.70;99.90;;;;;;4983752;28;20057;-76
2021/01/11 08:39:14;;;;;;;18.27;9.43;;;2.70;99.90;;;;;;4984244;28;20030;-75
2021/01/11 08:41:53;;;;;;;15.02;8.38;;;2.80;99.90;;;;;;4983779;28;20044;-75
2021/01/11 08:44:29;;;;;;;14.45;7.85;;;2.80;99.90;;;;;;4980834;28;20551;-81
2021/01/11 08:47:04;;;;;;;15.32;8.60;;;2.80;99.90;;;;;;4983402;28;20027;-80
2021/01/11 08:49:30;;;;;;;15.20;8.15;;;2.80;99.90;;;;;;4981929;28;20027;-80
2021/01/11 08:52:07;;;;;;;19.40;9.10;;;2.80;99.90;;;;;;4983106;28;20105;-75
2021/01/11 08:54:32;;;;;;;17.63;9.05;;;2.80;99.90;;;;;;4982631;28;20033;-75
2021/01/11 08:57:08;;;;;;;17.52;9.00;;;2.80;99.90;;;;;;4985453;28;20444;-75
2021/01/11 08:59:34;;;;;;;17.83;8.25;;;2.80;99.90;;;;;;4980811;28;20039;-76
2021/01/11 09:01:59;;;;;;;16.70;8.25;;;2.80;99.90;;;;;;4980782;28;20418;-75
2021/01/11 09:04:43;;;;;;;15.32;8.40;;;2.90;99.90;;;;;;4984631;28;20049;-76
2021/01/11 09:07:08;;;;;;;22.30;9.07;;;2.80;99.90;;;;;;4985320;28;20385;-76
2021/01/11 09:09:36;;;;;;;15.60;8.65;;;2.80;99.90;;;;;;4986050;28;20056;-75
2021/01/11 09:12:08;;;;;;;16.90;8.48;;;2.90;99.90;;;;;;4984574;28;20089;-75
2021/01/11 09:14:51;;;;;;;16.52;8.15;;;2.90;99.90;;;;;;4981806;28;20034;-75
2021/01/11 09:17:25;;;;;;;18.48;8.55;;;3.00;99.90;;;;;;4989066;28;20117;-73
2021/01/11 09:19:51;;;;;;;16.38;8.30;;;3.10;99.90;;;;;;4980978;28;20035;-74
2021/01/11 09:22:16;;;;;;;14.32;7.78;;;3.20;99.90;;;;;;4984803;28;20041;-74
2021/01/11 09:24:42;;;;;;;15.73;8.05;;;3.20;99.90;;;;;;4984747;28;20031;-75
2021/01/11 09:27:08;;;;;;;16.40;7.60;;;3.20;99.90;;;;;;4984684;28;20042;-74
2021/01/11 09:29:35;;;;;;;14.35;8.05;;;3.20;99.90;;;;;;4986312;28;20034;-75
2021/01/11 09:32:01;;;;;;;12.75;7.55;;;3.20;99.90;;;;;;4986080;28;20088;-74
2021/01/11 09:34:26;;;;;;;12.73;7.13;;;3.20;99.90;;;;;;4983046;28;20031;-73
2021/01/11 09:36:52;;;;;;;16.77;8.57;;;3.30;99.90;;;;;;4987978;28;20018;-74
2021/01/11 09:39:17;;;;;;;16.17;7.75;;;3.30;99.90;;;;;;4983742;28;20562;-73
2021/01/11 09:41:51;;;;;;;13.10;7.25;;;3.30;99.90;;;;;;4982072;28;20049;-75
2021/01/11 09:44:18;;;;;;;13.27;7.70;;;3.30;99.90;;;;;;4979348;28;20038;-75
2021/01/11 09:46:57;;;;;;;15.50;8.27;;;3.30;99.90;;;;;;4979823;28;20033;-75
2021/01/11 09:49:27;;;;;;;13.23;7.40;;;3.30;99.90;;;;;;4982302;28;20146;-75
2021/01/11 09:51:53;;;;;;;15.23;7.78;;;3.40;99.90;;;;;;4982240;28;21126;-75
2021/01/11 09:54:19;;;;;;;13.60;7.07;;;3.40;99.90;;;;;;4981193;28;20042;-75
2021/01/11 09:56:45;;;;;;;14.88;7.82;;;3.40;99.90;;;;;;4984133;28;20035;-75
2021/01/11 09:59:11;;;;;;;15.50;7.60;;;3.40;99.90;;;;;;4984061;28;20559;-75
2021/01/11 10:01:45;;;;;;;15.93;7.90;;;3.40;99.90;;;;;;4979867;28;20496;-76
2021/01/11 10:04:13;;;;;;;16.17;7.28;;;3.40;99.90;;;;;;4982196;28;20042;-75
2021/01/11 10:06:43;;;;;;;15.63;7.75;;;3.40;99.90;;;;;;4983741;28;20030;-76
2021/01/11 10:09:14;;;;;;;14.83;7.83;;;3.40;99.90;;;;;;4981322;28;20042;-75
2021/01/11 10:11:39;;;;;;;14.60;7.60;;;3.40;99.90;;;;;;4981423;28;20144;-74
2021/01/11 10:14:06;;;;;;;12.45;7.45;;;3.50;99.90;;;;;;4984182;28;20121;-75
2021/01/11 10:16:32;;;;;;;11.73;7.07;;;3.50;99.90;;;;;;4983834;28;20026;-74
2021/01/11 10:18:57;;;;;;;11.88;6.13;;;3.60;99.90;;;;;;4983438;28;20030;-73
2021/01/11 10:21:23;;;;;;;13.50;7.30;;;3.60;99.90;;;;;;4983916;28;20034;-74
2021/01/11 10:23:49;;;;;;;13.05;6.85;;;3.60;99.90;;;;;;4982730;28;20105;-73
2021/01/11 10:26:16;;;;;;;13.02;6.72;;;3.60;99.90;;;;;;4983547;28;20030;-73
2021/01/11 10:28:42;;;;;;;10.30;5.88;;;3.60;99.90;;;;;;4979968;28;20089;-74
2021/01/11 10:31:07;;;;;;;13.93;6.47;;;3.60;99.90;;;;;;4983772;28;20058;-73
2021/01/11 10:33:33;;;;;;;9.95;6.47;;;3.60;99.90;;;;;;4982041;28;20038;-73
2021/01/11 10:35:58;;;;;;;10.70;5.72;;;3.60;99.90;;;;;;4982722;28;21741;-73
2021/01/11 10:38:23;;;;;;;11.68;6.15;;;3.50;99.90;;;;;;4980520;28;20031;-73
2021/01/11 10:40:49;;;;;;;10.20;5.80;;;3.50;99.90;;;;;;4980757;28;20051;-73
2021/01/11 10:43:15;;;;;;;11.85;6.22;;;3.50;99.90;;;;;;4983369;28;20099;-73
2021/01/11 10:45:40;;;;;;;10.50;5.60;;;3.50;99.90;;;;;;4980281;28;20041;-73
2021/01/11 10:48:06;;;;;;;10.45;5.80;;;3.50;99.90;;;;;;4980692;28;20575;-80
2021/01/11 10:50:32;;;;;;;11.57;6.22;;;3.50;99.90;;;;;;4981837;28;20052;-80
2021/01/11 10:52:57;;;;;;;12.32;6.22;;;3.40;99.90;;;;;;4982686;28;20022;-80
2021/01/11 10:55:23;;;;;;;9.85;5.20;;;3.40;99.90;;;;;;4979499;28;20022;-80
2021/01/11 10:57:49;;;;;;;11.05;6.13;;;3.30;99.90;;;;;;4981661;28;20049;-73
2021/01/11 11:00:18;;;;;;;16.35;7.85;;;3.30;99.90;;;;;;4983199;28;20046;-73
2021/01/11 11:02:44;;;;;;;14.13;6.75;;;3.30;99.90;;;;;;4982681;28;20037;-73
2021/01/11 11:05:10;;;;;;;10.25;5.85;;;3.30;99.90;;;;;;4979034;28;20047;-73
2021/01/11 11:07:38;;;;;;;13.02;5.65;;;3.30;99.90;;;;;;4982340;28;20086;-73
2021/01/11 11:10:08;;;;;;;11.48;6.32;;;3.20;99.90;;;;;;4980443;28;20497;-73
2021/01/11 11:12:35;;;;;;;12.48;7.18;;;3.20;99.90;;;;;;4983259;28;20042;-74
2021/01/11 11:15:00;;;;;;;12.00;6.10;;;3.20;99.90;;;;;;4980486;28;20086;-72
2021/01/11 11:17:30;;;;;;;10.63;6.07;;;3.20;99.90;;;;;;4981816;28;20034;-72
2021/01/11 11:19:56;;;;;;;11.02;6.20;;;3.10;99.90;;;;;;4981493;28;20042;-73
2021/01/11 11:22:21;;;;;;;12.00;5.78;;;3.10;99.90;;;;;;4980617;28;20026;-75
2021/01/11 11:24:47;;;;;;;10.43;6.03;;;3.10;99.90;;;;;;4978982;28;20134;-73
2021/01/11 11:27:12;;;;;;;12.18;6.50;;;3.10;99.90;;;;;;4981443;28;20030;-75
2021/01/11 11:29:38;;;;;;;13.90;6.10;;;3.20;99.90;;;;;;4979241;28;20030;-73
2021/01/11 11:32:04;;;;;;;12.32;6.60;;;3.20;99.90;;;;;;4982311;28;20026;-74
2021/01/11 11:34:30;;;;;;;12.60;6.00;;;3.30;99.90;;;;;;4980784;28;20038;-73
2021/01/11 11:36:56;;;;;;;12.48;6.07;;;3.20;99.90;;;;;;4981446;28;20041;-74
2021/01/11 11:39:22;;;;;;;9.30;5.35;;;3.30;99.90;;;;;;4982916;28;20018;-73
2021/01/11 11:41:47;;;;;;;16.23;6.63;;;3.30;99.90;;;;;;4983248;28;20069;-74
2021/01/11 11:44:13;;;;;;;11.15;6.20;;;3.20;99.90;;;;;;4984067;28;20366;-74
2021/01/11 11:46:38;;;;;;;11.57;6.43;;;3.30;99.90;;;;;;4985322;28;20019;-75
2021/01/11 11:49:04;;;;;;;11.95;6.03;;;3.20;99.90;;;;;;4985107;28;20030;-74
2021/01/11 11:51:29;;;;;;;10.85;6.30;;;3.40;99.90;;;;;;4984258;28;20125;-74
2021/01/11 11:53:56;;;;;;;12.25;6.75;;;3.30;99.90;;;;;;4982950;28;20034;-74
2021/01/11 11:56:22;;;;;;;10.93;6.32;;;3.30;99.90;;;;;;4985423;28;20042;-74
2021/01/11 11:58:48;;;;;;;14.68;7.45;;;3.40;99.90;;;;;;4983630;28;20068;-74
2021/01/11 12:01:13;;;;;;;14.00;6.80;;;3.40;99.90;;;;;;4984688;28;20022;-74
2021/01/11 12:03:39;;;;;;;13.48;7.25;;;3.40;99.90;;;;;;4983232;28;20058;-74
2021/01/11 12:06:04;;;;;;;13.30;6.95;;;3.40;99.90;;;;;;4983920;28;20030;-75
2021/01/11 12:08:30;;;;;;;13.85;7.40;;;3.30;99.90;;;;;;4983750;28;20186;-73
2021/01/11 12:10:56;;;;;;;13.35;7.88;;;3.20;99.90;;;;;;4982715;28;20049;-74
2021/01/11 12:13:21;;;;;;;11.85;6.93;;;3.20;99.90;;;;;;4983508;28;20038;-74
2021/01/11 12:15:47;;;;;;;14.60;7.53;;;3.30;99.90;;;;;;4982939;28;20145;-73
2021/01/11 12:18:12;;;;;;;11.98;6.43;;;3.20;99.90;;;;;;4984213;28;20081;-73
2021/01/11 12:20:38;;;;;;;14.98;7.38;;;3.20;99.90;;;;;;4982940;28;20114;-73
2021/01/11 12:23:03;;;;;;;13.40;7.00;;;3.30;99.90;;;;;;4984688;28;20504;-74
2021/01/11 12:25:29;;;;;;;15.30;7.50;;;3.30;99.90;;;;;;4984779;28;20092;-73
2021/01/11 12:27:55;;;;;;;15.50;6.90;;;3.30;99.90;;;;;;4984138;28;20022;-73
2021/01/11 12:30:21;;;;;;;16.08;7.82;;;3.20;99.90;;;;;;4982900;28;20678;-73
2021/01/11 12:32:47;;;;;;;11.52;6.95;;;3.30;99.90;;;;;;4985370;28;20109;-72
2021/01/11 12:35:13;;;;;;;12.65;6.45;;;3.20;99.90;;;;;;4984859;28;20038;-73
2021/01/11 12:37:39;;;;;;;11.65;6.30;;;3.20;99.90;;;;;;4983460;28;20076;-73
2021/01/11 12:40:05;;;;;;;10.70;5.93;;;3.30;99.90;;;;;;4984276;28;20133;-73
2021/01/11 12:42:30;;;;;;;13.88;7.35;;;3.20;99.90;;;;;;4982628;28;20034;-76
2021/01/11 12:44:57;;;;;;;13.27;6.53;;;3.20;99.90;;;;;;4982688;28;20077;-74
2021/01/11 12:47:22;;;;;;;11.95;6.90;;;3.20;99.90;;;;;;4983171;28;20026;-74
2021/01/11 12:49:49;;;;;;;11.05;6.10;;;3.30;99.90;;;;;;4984847;28;20424;-75
2021/01/11 12:52:15;;;;;;;14.07;7.30;;;3.20;99.90;;;;;;4987890;28;20073;-74
2021/01/11 12:54:41;;;;;;;12.60;7.00;;;3.20;99.90;;;;;;4985979;28;20132;-74